createdAt,value
2018-04-26T00:01:48.220Z,13.78
2018-04-26T00:02:48.170Z,13.76
2018-04-26T00:04:44.065Z,13.73
2018-04-26T00:05:44.015Z,13.78
2018-04-26T00:07:37.955Z,13.75
2018-04-26T00:08:37.374Z,13.76
2018-04-26T00:10:33.326Z,13.61
2018-04-26T00:11:33.263Z,13.58
2018-04-26T00:13:29.192Z,13.67
2018-04-26T00:14:29.117Z,13.55
2018-04-26T00:16:25.077Z,13.55
2018-04-26T00:17:24.996Z,13.55
2018-04-26T00:19:18.440Z,13.46
2018-04-26T00:20:18.346Z,13.53
2018-04-26T00:22:14.427Z,13.55
2018-04-26T00:23:14.178Z,13.51
2018-04-26T00:25:10.972Z,13.47
2018-04-26T00:26:10.916Z,13.58
2018-04-26T00:28:07.676Z,13.51
2018-04-26T00:29:07.617Z,13.53
2018-04-26T00:31:03.544Z,13.49
2018-04-26T00:32:03.495Z,13.49
2018-04-26T00:33:59.370Z,13.42
2018-04-26T00:34:59.317Z,13.43
2018-04-26T00:36:53.590Z,13.32
2018-04-26T00:37:53.538Z,13.39
2018-04-26T00:39:49.460Z,13.29
2018-04-26T00:40:49.382Z,13.38
2018-04-26T00:42:45.281Z,13.21
2018-04-26T00:43:45.229Z,13.17
2018-04-26T00:45:41.115Z,13.24
2018-04-26T00:46:41.078Z,13.24
2018-04-26T00:48:34.482Z,13.11
2018-04-26T00:49:34.412Z,13.16
2018-04-26T00:51:27.813Z,13.04
2018-04-26T00:52:27.757Z,13.02
2018-04-26T00:54:23.686Z,12.91
2018-04-26T00:55:23.614Z,12.87
2018-04-26T00:57:17.033Z,12.87
2018-04-26T00:58:16.966Z,12.86
2018-04-26T01:00:10.410Z,12.96
2018-04-26T01:01:10.346Z,12.96
2018-04-26T01:03:03.743Z,13.05
2018-04-26T01:04:03.689Z,13.05
2018-04-26T01:05:59.594Z,13.05
2018-04-26T01:06:59.546Z,13.09
2018-04-26T01:08:52.975Z,13.11
2018-04-26T01:09:52.910Z,13.04
2018-04-26T01:11:48.811Z,13.09
2018-04-26T01:12:48.758Z,13.06
2018-04-26T01:14:44.658Z,13.05
2018-04-26T01:15:44.606Z,13.16
2018-04-26T01:17:41.386Z,13.16
2018-04-26T01:18:41.330Z,13.08
2018-04-26T01:20:34.721Z,12.95
2018-04-26T01:21:34.671Z,12.87
2018-04-26T01:23:28.070Z,12.80
2018-04-26T01:24:28.010Z,12.72
2018-04-26T01:26:21.444Z,12.66
2018-04-26T01:27:21.378Z,12.63
2018-04-26T01:29:17.311Z,12.58
2018-04-26T01:30:17.244Z,12.59
2018-04-26T01:32:10.640Z,12.38
2018-04-26T01:33:10.576Z,12.43
2018-04-26T01:35:04.687Z,12.43
2018-04-26T01:36:03.924Z,12.59
2018-04-26T01:37:59.822Z,12.50
2018-04-26T01:38:59.766Z,12.47
2018-04-26T01:40:55.714Z,12.58
2018-04-26T01:41:55.637Z,12.62
2018-04-26T01:43:49.842Z,12.58
2018-04-26T01:44:49.785Z,12.62
2018-04-26T01:46:46.553Z,12.71
2018-04-26T01:47:46.500Z,12.73
2018-04-26T01:49:39.925Z,12.76
2018-04-26T01:50:39.863Z,12.65
2018-04-26T01:52:35.791Z,12.81
2018-04-26T01:53:35.730Z,12.76
2018-04-26T01:55:29.989Z,12.80
2018-04-26T01:56:29.929Z,12.79
2018-04-26T01:58:23.321Z,12.66
2018-04-26T01:59:23.283Z,12.73
2018-04-26T02:01:19.200Z,12.81
2018-04-26T02:02:19.129Z,12.71
2018-04-26T02:10:41.610Z,12.68
2018-04-26T02:11:41.555Z,12.65
2018-04-26T02:13:37.496Z,12.71
2018-04-26T02:15:55.398Z,12.77
2018-04-26T02:18:46.743Z,12.71
2018-04-26T02:20:51.812Z,12.66
2018-04-26T02:21:22.568Z,12.62
2018-04-26T02:23:18.477Z,12.68
2018-04-26T02:24:18.417Z,12.65
2018-04-26T02:29:50.903Z,12.72
2018-04-26T02:31:29.788Z,12.71
2018-04-26T02:32:20.606Z,12.73
2018-04-26T02:34:15.046Z,12.73
2018-04-26T02:42:49.011Z,12.68
2018-04-26T02:43:48.911Z,12.69
2018-04-26T02:46:08.811Z,12.69
2018-04-26T02:47:44.680Z,12.76
2018-04-26T02:49:57.517Z,12.84
2018-04-26T02:50:57.434Z,12.86
2018-04-26T02:52:54.224Z,12.80
2018-04-26T02:53:54.165Z,12.79
2018-04-26T02:55:50.094Z,12.83
2018-04-26T02:56:50.027Z,12.81
2018-04-26T02:58:45.920Z,12.88
2018-04-26T02:59:45.880Z,12.84
2018-04-26T03:01:39.361Z,12.93
2018-04-26T03:02:39.288Z,12.86
2018-04-26T03:04:35.259Z,12.88
2018-04-26T03:05:35.156Z,12.86
2018-04-26T03:07:31.067Z,12.88
2018-04-26T03:08:31.013Z,12.95
2018-04-26T03:10:27.074Z,12.96
2018-04-26T03:11:27.019Z,12.93
2018-04-26T03:13:22.958Z,12.87
2018-04-26T03:14:22.864Z,12.88
2018-04-26T03:16:16.306Z,12.87
2018-04-26T03:17:16.245Z,12.87
2018-04-26T03:19:09.672Z,12.95
2018-04-26T03:20:09.609Z,12.84
2018-04-26T03:22:05.551Z,12.83
2018-04-26T03:23:05.491Z,12.79
2018-04-26T03:24:58.914Z,12.79
2018-04-26T03:25:58.832Z,12.68
2018-04-26T03:27:52.281Z,12.66
2018-04-26T03:28:52.210Z,12.63
2018-04-26T03:30:45.653Z,12.66
2018-04-26T03:31:45.594Z,12.61
2018-04-26T03:33:39.003Z,12.65
2018-04-26T03:34:38.987Z,12.54
2018-04-26T03:36:32.388Z,12.62
2018-04-26T03:37:32.312Z,12.55
2018-04-26T03:39:28.190Z,12.55
2018-04-26T03:40:28.147Z,12.58
2018-04-26T03:42:24.083Z,12.55
2018-04-26T03:43:23.990Z,12.61
2018-04-26T03:45:19.925Z,12.59
2018-04-26T03:46:19.825Z,12.54
2018-04-26T03:48:16.679Z,12.65
2018-04-26T03:49:16.578Z,12.65
2018-04-26T03:51:10.019Z,12.61
2018-04-26T03:52:09.965Z,12.62
2018-04-26T03:54:05.939Z,12.58
2018-04-26T03:55:05.843Z,12.59
2018-04-26T03:56:59.293Z,12.54
2018-04-26T03:57:59.189Z,12.55
2018-04-26T03:59:52.615Z,12.58
2018-04-26T04:00:52.559Z,12.53
2018-04-26T04:02:45.955Z,12.53
2018-04-26T04:03:45.944Z,12.53
2018-04-26T04:05:39.327Z,12.54
2018-04-26T04:06:39.249Z,12.54
2018-04-26T04:08:32.650Z,12.47
2018-04-26T04:09:32.582Z,12.51
2018-04-26T04:11:26.023Z,12.53
2018-04-26T04:12:25.962Z,12.47
2018-04-26T04:14:19.398Z,12.50
2018-04-26T04:15:19.310Z,12.53
2018-04-26T04:17:12.721Z,12.54
2018-04-26T04:18:12.648Z,12.50
2018-04-26T04:20:08.549Z,12.55
2018-04-26T04:21:08.495Z,12.53
2018-04-26T04:23:04.394Z,12.50
2018-04-26T04:24:04.329Z,12.47
2018-04-26T04:25:57.764Z,12.55
2018-04-26T04:26:57.668Z,12.47
2018-04-26T04:28:53.609Z,12.40
2018-04-26T04:29:53.535Z,12.33
2018-04-26T04:31:49.502Z,12.28
2018-04-26T04:32:49.432Z,12.33
2018-04-26T04:34:45.411Z,12.33
2018-04-26T04:35:45.342Z,12.40
2018-04-26T04:37:41.275Z,12.23
2018-04-26T04:38:41.223Z,12.32
2018-04-26T04:40:37.106Z,12.29
2018-04-26T04:41:37.038Z,12.30
2018-04-26T04:43:33.768Z,12.38
2018-04-26T04:44:33.712Z,12.32
2018-04-26T04:46:30.165Z,12.41
2018-04-26T04:47:29.562Z,12.35
2018-04-26T04:49:25.548Z,12.32
2018-04-26T04:50:25.423Z,12.36
2018-04-26T04:52:18.821Z,12.23
2018-04-26T04:53:18.753Z,12.32
2018-04-26T04:55:14.695Z,12.33
2018-04-26T04:56:14.606Z,12.23
2018-04-26T04:58:08.558Z,12.23
2018-04-26T04:59:07.946Z,12.29
2018-04-26T05:01:01.378Z,12.23
2018-04-26T05:02:01.382Z,12.13
2018-04-26T05:03:54.736Z,12.18
2018-04-26T05:04:54.633Z,12.23
2018-04-26T05:06:48.026Z,12.15
2018-04-26T05:07:47.967Z,12.18
2018-04-26T05:09:41.398Z,12.07
2018-04-26T05:10:41.333Z,12.07
2018-04-26T05:12:34.715Z,12.10
2018-04-26T05:13:34.647Z,12.11
2018-04-26T05:15:28.106Z,12.10
2018-04-26T05:16:28.007Z,12.08
2018-04-26T05:18:21.499Z,12.08
2018-04-26T05:19:21.433Z,12.00
2018-04-26T05:21:14.870Z,11.99
2018-04-26T05:22:14.771Z,12.04
2018-04-26T05:24:08.643Z,12.03
2018-04-26T05:25:08.129Z,12.07
2018-04-26T05:27:04.125Z,12.03
2018-04-26T05:28:03.998Z,12.04
2018-04-26T05:29:57.484Z,12.08
2018-04-26T05:30:57.350Z,12.10
2018-04-26T05:32:53.351Z,12.08
2018-04-26T05:33:53.258Z,12.11
2018-04-26T05:35:49.243Z,12.15
2018-04-26T05:36:49.152Z,12.10
2018-04-26T05:38:42.576Z,12.17
2018-04-26T05:39:42.491Z,12.14
2018-04-26T05:41:38.415Z,12.17
2018-04-26T05:42:38.345Z,12.17
2018-04-26T05:44:34.293Z,12.23
2018-04-26T05:45:34.213Z,12.21
2018-04-26T05:47:27.775Z,12.28
2018-04-26T05:48:27.595Z,12.28
2018-04-26T05:50:21.122Z,12.28
2018-04-26T05:51:21.064Z,12.22
2018-04-26T05:53:16.999Z,12.14
2018-04-26T05:54:16.907Z,12.23
2018-04-26T05:56:10.386Z,12.29
2018-04-26T05:57:10.258Z,12.15
2018-04-26T05:59:06.266Z,12.35
2018-04-26T06:00:06.202Z,12.35
2018-04-26T06:01:59.630Z,12.38
2018-04-26T06:02:59.541Z,12.30
2018-04-26T06:04:55.442Z,12.41
2018-04-26T06:05:55.387Z,12.43
2018-04-26T06:07:51.332Z,12.40
2018-04-26T06:08:51.259Z,12.44
2018-04-26T06:10:44.666Z,12.43
2018-04-26T06:11:44.611Z,12.41
2018-04-26T06:13:40.545Z,12.46
2018-04-26T06:14:40.463Z,12.38
2018-04-26T06:16:33.885Z,12.47
2018-04-26T06:17:33.820Z,12.44
2018-04-26T06:19:29.750Z,12.54
2018-04-26T06:20:29.674Z,12.47
2018-04-26T06:22:26.468Z,12.51
2018-04-26T06:23:26.365Z,12.48
2018-04-26T06:25:22.332Z,12.53
2018-04-26T06:26:22.272Z,12.54
2018-04-26T06:28:15.671Z,12.40
2018-04-26T06:29:15.606Z,12.44
2018-04-26T06:31:11.587Z,12.46
2018-04-26T06:32:11.457Z,12.43
2018-04-26T06:34:04.906Z,12.43
2018-04-26T06:35:04.839Z,12.38
2018-04-26T06:36:58.426Z,12.44
2018-04-26T06:37:58.192Z,12.41
2018-04-26T06:39:54.130Z,12.33
2018-04-26T06:40:54.036Z,12.41
2018-04-26T06:42:49.976Z,12.41
2018-04-26T06:43:49.896Z,12.44
2018-04-26T06:45:45.866Z,12.46
2018-04-26T06:46:45.806Z,12.41
2018-04-26T06:48:40.076Z,12.55
2018-04-26T06:49:40.015Z,12.53
2018-04-26T06:51:34.335Z,12.55
2018-04-26T06:52:34.220Z,12.54
2018-04-26T06:54:40.792Z,12.61
2018-04-26T06:55:40.741Z,12.58
2018-04-26T06:57:36.662Z,12.71
2018-04-26T06:58:36.590Z,12.77
2018-04-26T07:00:30.625Z,12.71
2018-04-26T07:01:29.943Z,12.71
2018-04-26T07:03:23.422Z,12.68
2018-04-26T07:04:23.287Z,12.72
2018-04-26T07:06:16.734Z,12.73
2018-04-26T07:07:16.656Z,12.68
2018-04-26T07:09:10.136Z,12.63
2018-04-26T07:10:10.059Z,12.68
2018-04-26T07:12:06.928Z,12.65
2018-04-26T07:13:06.775Z,12.63
2018-04-26T07:15:02.668Z,12.59
2018-04-26T07:16:02.611Z,12.63
2018-04-26T07:17:56.076Z,12.66
2018-04-26T07:18:55.994Z,12.62
2018-04-26T07:20:50.246Z,12.71
2018-04-26T07:21:50.251Z,12.62
2018-04-26T07:23:46.124Z,12.71
2018-04-26T07:24:46.061Z,12.83
2018-04-26T07:26:42.005Z,12.95
2018-04-26T07:27:41.914Z,12.91
2018-04-26T07:29:37.853Z,13.01
2018-04-26T07:30:37.772Z,13.05
2018-04-26T07:32:31.198Z,13.09
2018-04-26T07:33:31.140Z,13.09
2018-04-26T07:35:27.070Z,13.09
2018-04-26T07:36:26.992Z,13.04
2018-04-26T07:38:20.473Z,13.05
2018-04-26T07:39:20.355Z,13.01
2018-04-26T07:41:13.772Z,12.84
2018-04-26T07:42:13.706Z,12.83
2018-04-26T07:44:09.640Z,12.91
2018-04-26T07:45:09.557Z,12.93
2018-04-26T07:47:02.957Z,12.77
2018-04-26T07:48:02.900Z,12.81
2018-04-26T07:49:56.335Z,12.88
2018-04-26T07:50:56.277Z,12.96
2018-04-26T07:52:52.174Z,12.86
2018-04-26T07:53:52.115Z,13.04
2018-04-26T07:55:48.065Z,13.08
2018-04-26T07:56:47.977Z,13.09
2018-04-26T07:58:41.428Z,13.11
2018-04-26T07:59:41.337Z,13.05
2018-04-26T08:01:37.349Z,13.04
2018-04-26T08:02:37.196Z,13.04
2018-04-26T08:04:30.673Z,13.14
2018-04-26T08:05:30.603Z,13.23
2018-04-26T08:07:26.554Z,13.27
2018-04-26T08:08:26.512Z,13.36
2018-04-26T08:10:22.432Z,13.42
2018-04-26T08:11:22.382Z,13.47
2018-04-26T08:12:22.354Z,13.49
2018-04-26T08:13:22.337Z,13.43
2018-04-26T08:14:22.308Z,13.54
2018-04-26T08:15:22.291Z,13.54
2018-04-26T08:16:22.265Z,13.53
2018-04-26T08:17:22.243Z,13.51
2018-04-26T08:18:22.222Z,13.65
2018-04-26T08:19:22.200Z,13.64
2018-04-26T08:20:22.177Z,13.73
2018-04-26T08:21:22.155Z,13.65
2018-04-26T08:22:22.156Z,13.71
2018-04-26T08:23:22.117Z,13.79
2018-04-26T08:24:22.090Z,13.88
2018-04-26T08:25:22.069Z,13.85
2018-04-26T08:26:22.051Z,14.00
2018-04-26T08:27:22.037Z,13.96
2018-04-26T08:28:22.004Z,13.93
2018-04-26T08:29:21.989Z,13.85
2018-04-26T08:30:21.960Z,13.93
2018-04-26T08:31:21.940Z,13.82
2018-04-26T08:32:21.918Z,13.90
2018-04-26T08:33:21.897Z,13.94
2018-04-26T08:34:21.882Z,14.00
2018-04-26T08:35:21.851Z,14.04
2018-04-26T08:36:21.836Z,14.05
2018-04-26T08:37:21.806Z,14.18
2018-04-26T08:38:21.792Z,14.21
2018-04-26T08:39:21.767Z,14.33
2018-04-26T08:40:49.387Z,14.36
2018-04-26T08:41:21.722Z,14.45
2018-04-26T08:42:21.704Z,14.48
2018-04-26T08:43:21.695Z,14.44
2018-04-26T08:44:21.657Z,14.51
2018-04-26T08:45:21.635Z,14.46
2018-04-26T08:46:21.618Z,14.30
2018-04-26T08:47:21.607Z,14.31
2018-04-26T08:48:21.574Z,14.22
2018-04-26T08:49:21.552Z,14.05
2018-04-26T08:50:21.532Z,14.21
2018-04-26T08:51:21.533Z,14.22
2018-04-26T08:52:21.549Z,14.26
2018-04-26T08:53:21.475Z,14.33
2018-04-26T08:54:21.444Z,14.56
2018-04-26T08:55:21.423Z,14.64
2018-04-26T08:56:21.402Z,14.77
2018-04-26T08:57:21.381Z,14.71
2018-04-26T08:58:21.358Z,14.93
2018-04-26T08:59:21.337Z,15.40
2018-04-26T09:00:21.314Z,15.62
2018-04-26T09:01:21.296Z,15.50
2018-04-26T09:02:21.288Z,15.27
2018-04-26T09:03:21.250Z,15.32
2018-04-26T09:04:21.230Z,15.36
2018-04-26T09:05:21.209Z,15.29
2018-04-26T09:06:21.187Z,15.98
2018-04-26T09:07:21.168Z,16.47
2018-04-26T09:08:21.146Z,16.92
2018-04-26T09:09:21.123Z,17.50
2018-04-26T09:10:21.104Z,17.79
2018-04-26T09:11:21.080Z,18.18
2018-04-26T09:12:21.064Z,18.70
2018-04-26T09:13:21.052Z,18.85
2018-04-26T09:14:21.019Z,18.46
2018-04-26T09:15:20.996Z,18.60
2018-04-26T09:16:20.979Z,18.51
2018-04-26T09:17:20.956Z,18.23
2018-04-26T09:18:20.936Z,18.39
2018-04-26T09:19:20.918Z,18.23
2018-04-26T09:20:20.896Z,17.81
2018-04-26T09:21:20.876Z,18.17
2018-04-26T09:22:20.855Z,18.46
2018-04-26T09:23:20.841Z,18.70
2018-04-26T09:24:20.823Z,19.07
2018-04-26T09:25:20.798Z,19.31
2018-04-26T09:26:20.780Z,19.45
2018-04-26T09:27:20.760Z,19.63
2018-04-26T09:28:20.745Z,19.60
2018-04-26T09:29:20.726Z,19.07
2018-04-26T09:30:20.724Z,19.24
2018-04-26T09:31:20.697Z,19.49
2018-04-26T09:32:20.700Z,18.79
2018-04-26T09:33:20.651Z,18.71
2018-04-26T09:34:20.632Z,18.27
2018-04-26T09:35:20.619Z,18.15
2018-04-26T09:36:20.599Z,18.21
2018-04-26T09:37:20.581Z,18.28
2018-04-26T09:38:20.561Z,18.49
2018-04-26T09:39:20.547Z,18.75
2018-04-26T09:40:20.526Z,18.41
2018-04-26T09:41:20.514Z,18.57
2018-04-26T09:42:20.492Z,18.81
2018-04-26T09:43:20.480Z,18.71
2018-04-26T09:44:20.460Z,18.28
2018-04-26T09:45:20.445Z,18.15
2018-04-26T09:46:20.430Z,18.13
2018-04-26T09:47:20.409Z,17.79
2018-04-26T09:48:20.392Z,17.62
2018-04-26T09:49:20.375Z,17.31
2018-04-26T09:50:20.356Z,16.98
2018-04-26T09:51:20.343Z,16.65
2018-04-26T09:52:20.328Z,16.43
2018-04-26T09:53:20.309Z,16.09
2018-04-26T09:54:20.292Z,15.95
2018-04-26T09:55:20.271Z,15.70
2018-04-26T09:56:20.252Z,15.66
2018-04-26T09:57:20.237Z,15.35
2018-04-26T09:58:20.218Z,15.27
2018-04-26T09:59:20.203Z,15.27
2018-04-26T10:00:20.181Z,15.33
2018-04-26T10:01:20.162Z,15.60
2018-04-26T10:02:20.144Z,15.87
2018-04-26T10:03:20.149Z,16.28
2018-04-26T10:04:20.112Z,16.58
2018-04-26T10:05:20.089Z,16.72
2018-04-26T10:06:20.074Z,17.01
2018-04-26T10:07:20.053Z,17.30
2018-04-26T10:08:20.040Z,17.49
2018-04-26T10:09:20.019Z,17.32
2018-04-26T10:10:19.998Z,17.54
2018-04-26T10:11:19.986Z,17.45
2018-04-26T10:12:19.968Z,17.19
2018-04-26T10:13:19.946Z,16.98
2018-04-26T10:14:19.930Z,16.67
2018-04-26T10:15:19.910Z,16.58
2018-04-26T10:16:19.898Z,16.52
2018-04-26T10:17:19.876Z,16.52
2018-04-26T10:18:19.863Z,16.43
2018-04-26T10:19:19.846Z,16.34
2018-04-26T10:20:19.822Z,16.18
2018-04-26T10:21:19.856Z,16.02
2018-04-26T10:22:19.789Z,15.85
2018-04-26T10:23:19.814Z,15.78
2018-04-26T10:24:19.748Z,15.66
2018-04-26T10:25:19.741Z,15.62
2018-04-26T10:26:19.716Z,15.56
2018-04-26T10:27:19.696Z,15.50
2018-04-26T10:28:19.674Z,15.40
2018-04-26T10:29:19.656Z,15.36
2018-04-26T10:30:19.634Z,15.52
2018-04-26T10:31:19.625Z,15.35
2018-04-26T10:32:19.630Z,15.68
2018-04-26T10:33:19.605Z,15.81
2018-04-26T10:34:19.580Z,16.06
2018-04-26T10:35:19.586Z,16.25
2018-04-26T10:36:19.525Z,16.42
2018-04-26T10:37:19.499Z,16.46
2018-04-26T10:38:19.484Z,16.44
2018-04-26T10:39:19.462Z,16.61
2018-04-26T10:40:19.459Z,16.77
2018-04-26T10:41:19.423Z,16.90
2018-04-26T10:42:19.405Z,16.94
2018-04-26T10:43:19.387Z,16.94
2018-04-26T10:44:19.390Z,16.90
2018-04-26T10:45:19.347Z,17.01
2018-04-26T10:46:19.328Z,17.31
2018-04-26T10:47:19.309Z,17.49
2018-04-26T10:48:19.292Z,17.68
2018-04-26T10:49:19.277Z,17.83
2018-04-26T10:50:19.255Z,17.97
2018-04-26T10:51:19.237Z,18.15
2018-04-26T10:52:19.228Z,17.96
2018-04-26T10:53:19.205Z,17.75
2018-04-26T10:54:19.182Z,17.56
2018-04-26T10:55:19.167Z,17.34
2018-04-26T10:56:19.149Z,17.12
2018-04-26T10:57:19.129Z,16.91
2018-04-26T10:58:19.113Z,16.65
2018-04-26T10:59:19.100Z,16.69
2018-04-26T11:00:19.076Z,16.67
2018-04-26T11:01:19.058Z,16.52
2018-04-26T11:02:19.040Z,16.49
2018-04-26T11:03:19.044Z,16.37
2018-04-26T11:04:19.003Z,16.29
2018-04-26T11:05:18.989Z,16.24
2018-04-26T11:06:18.972Z,16.09
2018-04-26T11:07:18.948Z,16.10
2018-04-26T11:08:18.931Z,16.09
2018-04-26T11:09:19.002Z,16.16
2018-04-26T11:10:18.933Z,16.13
2018-04-26T11:11:18.916Z,15.99
2018-04-26T11:12:18.855Z,16.06
2018-04-26T11:13:18.838Z,16.13
2018-04-26T11:14:18.819Z,16.21
2018-04-26T11:15:18.800Z,16.36
2018-04-26T11:16:18.783Z,16.43
2018-04-26T11:17:18.870Z,16.17
2018-04-26T11:18:18.749Z,16.25
2018-04-26T11:19:18.726Z,16.09
2018-04-26T11:20:18.705Z,15.91
2018-04-26T11:21:18.694Z,16.00
2018-04-26T11:22:18.669Z,15.95
2018-04-26T11:23:18.650Z,15.87
2018-04-26T11:24:18.682Z,15.81
2018-04-26T11:25:18.615Z,15.83
2018-04-26T11:26:18.602Z,15.81
2018-04-26T11:27:18.576Z,15.83
2018-04-26T11:28:18.558Z,16.03
2018-04-26T11:29:18.582Z,16.24
2018-04-26T11:30:18.528Z,16.43
2018-04-26T11:31:18.498Z,16.52
2018-04-26T11:32:18.481Z,16.52
2018-04-26T11:33:18.463Z,16.52
2018-04-26T11:34:18.450Z,16.37
2018-04-26T11:35:18.427Z,16.39
2018-04-26T11:36:18.407Z,16.24
2018-04-26T11:37:18.391Z,16.13
2018-04-26T11:38:18.376Z,15.99
2018-04-26T11:39:18.349Z,15.78
2018-04-26T11:40:18.425Z,15.70
2018-04-26T11:41:24.937Z,15.48
2018-04-26T11:42:18.292Z,15.27
2018-04-26T11:43:18.275Z,15.20
2018-04-26T11:44:18.252Z,15.03
2018-04-26T11:45:18.236Z,14.79
2018-04-26T11:46:18.218Z,14.71
2018-04-26T11:47:18.199Z,14.56
2018-04-26T11:48:18.179Z,14.33
2018-04-26T11:49:18.155Z,14.15
2018-04-26T11:50:18.136Z,14.12
2018-04-26T11:51:18.118Z,14.03
2018-04-26T11:52:18.112Z,13.97
2018-04-26T11:53:18.084Z,13.97
2018-04-26T11:54:18.059Z,13.97
2018-04-26T11:55:18.038Z,14.03
2018-04-26T11:56:18.026Z,14.12
2018-04-26T11:57:18.046Z,14.15
2018-04-26T11:58:17.979Z,14.52
2018-04-26T11:59:17.960Z,14.49
2018-04-26T12:00:17.997Z,14.59
2018-04-26T12:01:18.054Z,14.63
2018-04-26T12:02:17.909Z,14.61
2018-04-26T12:03:17.890Z,14.51
2018-04-26T12:04:17.875Z,14.46
2018-04-26T12:05:17.836Z,14.44
2018-04-26T12:06:17.818Z,14.36
2018-04-26T12:07:17.800Z,14.36
2018-04-26T12:08:17.777Z,14.37
2018-04-26T12:09:17.756Z,14.37
2018-04-26T12:10:17.741Z,14.33
2018-04-26T12:11:17.722Z,14.51
2018-04-26T12:12:17.732Z,14.52
2018-04-26T12:13:17.777Z,14.73
2018-04-26T12:14:17.661Z,14.70
2018-04-26T12:15:17.648Z,15.25
2018-04-26T12:16:17.663Z,15.60
2018-04-26T12:17:17.590Z,15.76
2018-04-26T12:18:17.571Z,15.72
2018-04-26T12:19:17.552Z,15.65
2018-04-26T12:20:17.535Z,15.58
2018-04-26T12:21:17.510Z,15.60
2018-04-26T12:22:17.488Z,15.51
2018-04-26T12:23:17.475Z,15.40
2018-04-26T12:24:17.450Z,15.30
2018-04-26T12:25:17.430Z,15.23
2018-04-26T12:26:17.417Z,15.14
2018-04-26T12:27:17.390Z,14.92
2018-04-26T12:28:17.372Z,14.90
2018-04-26T12:29:17.405Z,14.92
2018-04-26T12:30:17.335Z,14.82
2018-04-26T12:31:17.309Z,14.73
2018-04-26T12:32:17.287Z,14.70
2018-04-26T12:33:17.267Z,14.70
2018-04-26T12:34:17.248Z,14.53
2018-04-26T12:35:17.318Z,14.46
2018-04-26T12:36:17.205Z,14.37
2018-04-26T12:37:17.186Z,14.38
2018-04-26T12:38:17.166Z,14.33
2018-04-26T12:39:17.145Z,14.27
2018-04-26T12:40:17.132Z,14.22
2018-04-26T12:41:17.145Z,14.13
2018-04-26T12:42:17.188Z,14.13
2018-04-26T12:43:17.060Z,14.13
2018-04-26T12:44:17.039Z,14.03
2018-04-26T12:45:17.018Z,14.04
2018-04-26T12:46:17.001Z,13.98
2018-04-26T12:47:16.981Z,14.00
2018-04-26T12:48:16.960Z,13.96
2018-04-26T12:49:16.942Z,14.05
2018-04-26T12:50:16.929Z,13.88
2018-04-26T12:51:16.897Z,13.86
2018-04-26T12:52:16.877Z,13.83
2018-04-26T12:53:16.855Z,13.88
2018-04-26T12:54:16.831Z,13.80
2018-04-26T12:55:16.814Z,13.86
2018-04-26T12:56:16.793Z,13.90
2018-04-26T12:57:16.769Z,13.86
2018-04-26T12:58:16.793Z,13.82
2018-04-26T12:59:16.737Z,13.83
2018-04-26T13:00:16.703Z,13.83
2018-04-26T13:01:16.688Z,13.82
2018-04-26T13:02:16.664Z,13.82
2018-04-26T13:03:16.648Z,13.83
2018-04-26T13:04:16.632Z,13.80
2018-04-26T13:05:16.597Z,13.88
2018-04-26T13:06:16.590Z,14.01
2018-04-26T13:07:16.561Z,14.03
2018-04-26T13:08:16.533Z,14.22
2018-04-26T13:09:16.511Z,14.33
2018-04-26T13:10:16.504Z,14.58
2018-04-26T13:11:16.469Z,14.73
2018-04-26T13:12:16.458Z,14.92
2018-04-26T13:13:16.437Z,15.14
2018-04-26T13:14:16.415Z,15.33
2018-04-26T13:15:16.385Z,15.47
2018-04-26T13:16:16.363Z,15.68
2018-04-26T13:17:16.378Z,15.81
2018-04-26T13:18:16.321Z,15.99
2018-04-26T13:19:16.303Z,16.14
2018-04-26T13:20:16.278Z,16.22
2018-04-26T13:21:16.271Z,16.42
2018-04-26T13:22:16.262Z,16.40
2018-04-26T13:23:16.294Z,16.44
2018-04-26T13:24:16.239Z,16.58
2018-04-26T13:25:16.178Z,16.67
2018-04-26T13:26:16.192Z,16.61
2018-04-26T13:27:16.133Z,16.59
2018-04-26T13:28:16.110Z,16.44
2018-04-26T13:29:16.092Z,16.42
2018-04-26T13:30:16.081Z,16.40
2018-04-26T13:31:16.057Z,16.29
2018-04-26T13:32:16.030Z,16.29
2018-04-26T13:33:16.012Z,16.37
2018-04-26T13:34:15.992Z,16.39
2018-04-26T13:35:15.972Z,16.42
2018-04-26T13:36:16.019Z,16.47
2018-04-26T13:37:15.927Z,16.54
2018-04-26T13:38:15.908Z,16.51
2018-04-26T13:39:15.887Z,16.51
2018-04-26T13:40:15.864Z,16.55
2018-04-26T13:41:15.849Z,16.58
2018-04-26T13:42:15.823Z,16.51
2018-04-26T13:43:15.806Z,16.58
2018-04-26T13:44:15.804Z,16.62
2018-04-26T13:45:15.782Z,16.64
2018-04-26T13:46:15.837Z,16.57
2018-04-26T13:47:15.745Z,16.55
2018-04-26T13:48:15.704Z,16.58
2018-04-26T13:49:15.683Z,16.59
2018-04-26T13:50:15.670Z,16.65
2018-04-26T13:51:15.643Z,16.59
2018-04-26T13:52:15.624Z,16.67
2018-04-26T13:53:15.603Z,16.69
2018-04-26T13:54:15.583Z,16.90
2018-04-26T13:55:15.565Z,16.90
2018-04-26T13:56:15.540Z,16.98
2018-04-26T13:57:15.525Z,16.99
2018-04-26T13:58:15.501Z,16.87
2018-04-26T13:59:15.481Z,16.77
2018-04-26T14:00:15.464Z,16.74
2018-04-26T14:01:15.447Z,16.69
2018-04-26T14:02:15.422Z,16.77
2018-04-26T14:03:15.405Z,16.61
2018-04-26T14:04:15.400Z,16.73
2018-04-26T14:05:15.365Z,16.84
2018-04-26T14:06:15.340Z,16.69
2018-04-26T14:07:15.323Z,16.84
2018-04-26T14:08:15.344Z,16.99
2018-04-26T14:09:15.586Z,17.02
2018-04-26T14:10:15.259Z,16.94
2018-04-26T14:11:15.240Z,16.94
2018-04-26T14:13:49.897Z,16.95
2018-04-26T14:14:49.813Z,17.01
2018-04-26T14:16:43.256Z,17.04
2018-04-26T14:17:43.199Z,17.01
2018-04-26T14:19:39.169Z,16.99
2018-04-26T14:20:39.076Z,16.98
2018-04-26T14:22:32.507Z,16.99
2018-04-26T14:23:32.440Z,16.91
2018-04-26T14:25:25.887Z,16.94
2018-04-26T14:26:25.822Z,16.97
2018-04-26T14:28:19.233Z,16.82
2018-04-26T14:29:19.170Z,16.77
2018-04-26T14:31:15.085Z,16.70
2018-04-26T14:32:15.002Z,16.58
2018-04-26T14:34:08.431Z,16.49
2018-04-26T14:35:08.340Z,16.44
2018-04-26T14:37:01.868Z,16.37
2018-04-26T14:38:01.705Z,16.28
2018-04-26T14:39:57.652Z,16.29
2018-04-26T14:40:57.571Z,16.18
2018-04-26T14:42:51.028Z,16.26
2018-04-26T14:43:50.965Z,16.21
2018-04-26T14:45:46.906Z,16.14
2018-04-26T14:46:46.815Z,16.21
2018-04-26T14:48:42.771Z,16.21
2018-04-26T14:49:42.753Z,16.21
2018-04-26T14:51:38.593Z,16.06
2018-04-26T14:52:38.528Z,16.03
2018-04-26T14:54:31.934Z,15.91
2018-04-26T14:55:31.878Z,15.83
2018-04-26T14:57:27.821Z,15.58
2018-04-26T14:58:27.751Z,15.54
2018-04-26T15:00:23.712Z,15.32
2018-04-26T15:01:23.615Z,15.23
2018-04-26T15:03:19.556Z,15.11
2018-04-26T15:04:19.594Z,15.04
2018-04-26T15:06:15.502Z,14.95
2018-04-26T15:07:15.318Z,14.99
2018-04-26T15:09:08.760Z,14.92
2018-04-26T15:10:08.678Z,14.97
2018-04-26T15:12:02.117Z,14.96
2018-04-26T15:13:02.046Z,15.05
2018-04-26T15:14:57.987Z,15.08
2018-04-26T15:15:57.901Z,15.14
2018-04-26T15:17:53.832Z,15.20
2018-04-26T15:18:53.746Z,15.35
2018-04-26T15:20:47.181Z,15.59
2018-04-26T15:21:47.142Z,15.52
2018-04-26T15:23:40.538Z,15.73
2018-04-26T15:24:40.455Z,15.87
2018-04-26T15:26:33.918Z,16.00
2018-04-26T15:27:33.807Z,16.14
2018-04-26T15:29:29.713Z,16.24
2018-04-26T15:30:29.657Z,16.32
2018-04-26T15:32:23.303Z,16.39
2018-04-26T15:33:23.256Z,16.47
2018-04-26T15:35:16.661Z,16.58
2018-04-26T15:36:16.580Z,16.52
2018-04-26T15:38:12.558Z,16.67
2018-04-26T15:39:12.439Z,16.64
2018-04-26T15:41:08.335Z,16.72
2018-04-26T15:42:08.294Z,16.82
2018-04-26T15:44:04.216Z,16.80
2018-04-26T15:45:04.155Z,16.82
2018-04-26T15:46:57.647Z,16.70
2018-04-26T15:47:57.579Z,16.67
2018-04-26T15:49:53.484Z,16.67
2018-04-26T15:50:53.413Z,16.61
2018-04-26T15:52:46.819Z,16.69
2018-04-26T15:53:46.755Z,16.69
2018-04-26T15:55:42.701Z,16.72
2018-04-26T15:56:42.616Z,16.67
2018-04-26T15:58:36.128Z,16.61
2018-04-26T15:59:36.020Z,16.54
2018-04-26T16:01:32.043Z,16.43
2018-04-26T16:02:31.895Z,16.26
2018-04-26T16:04:25.327Z,16.16
2018-04-26T16:05:25.261Z,16.09
2018-04-26T16:07:21.248Z,15.95
2018-04-26T16:08:21.129Z,15.85
2018-04-26T16:10:14.588Z,15.72
2018-04-26T16:11:14.516Z,15.65
2018-04-26T16:13:07.969Z,15.56
2018-04-26T16:14:07.884Z,15.47
2018-04-26T16:16:02.196Z,15.27
2018-04-26T16:17:02.123Z,15.30
2018-04-26T16:18:55.595Z,15.10
2018-04-26T16:19:55.506Z,15.10
2018-04-26T16:21:48.942Z,15.07
2018-04-26T16:22:48.865Z,14.97